Terminal Aerodrome Forecast
Issued by NWS

Home | Current Version | Previous Version | Text Only | Print | Product List | Glossary On
Versions: 1 2 3 4 5 6 7 8 9 10 11 12 13 14 15
903
FTUS43 KDLH 232212 AAA
TAFBRD
TAF AMD
KBRD 232212Z 2322/2418 33008G14KT P6SM SCT070
     FM240100 35005KT P6SM FEW070
     FM241200 01007KT P6SM BKN060=

USA.gov is the U.S. government's official web portal to all federal, state and local government web resources and services.